Time;durP1;ratioP1;P1;durP2;ratioP2;P2;SDS_P1;SDS_P2;PMS_P1;PMS_P2;Temp;Humidity;BMP_temperature;BMP_pressure;BME280_temperature;BME280_humidity;BME280_pressure;Samples;Min_cycle;Max_cycle;Signal;HPM_P1;HPM_P2
2023/12/10 00:00:22;;;;;;;1.37;0.40;;;10.00;99.90;;;;;;5116471;28;20496;-63
2023/12/10 00:02:50;;;;;;;1.10;0.40;;;9.90;99.90;;;;;;5113599;28;20734;-62
2023/12/10 00:05:18;;;;;;;2.60;0.38;;;9.90;99.90;;;;;;5114705;28;20745;-63
2023/12/10 00:07:45;;;;;;;4.60;0.30;;;9.90;99.90;;;;;;5115469;28;20506;-63
2023/12/10 00:10:13;;;;;;;1.40;0.40;;;9.90;99.90;;;;;;5115862;28;20861;-63
2023/12/10 00:12:40;;;;;;;3.40;0.50;;;9.90;99.90;;;;;;5114843;28;20814;-64
2023/12/10 00:15:08;;;;;;;2.35;0.40;;;9.90;99.90;;;;;;5115320;28;20507;-63
2023/12/10 00:17:35;;;;;;;2.63;0.40;;;10.00;99.90;;;;;;5114809;28;20460;-63
2023/12/10 00:20:03;;;;;;;2.47;0.50;;;10.00;99.90;;;;;;5114266;28;20431;-63
2023/12/10 00:22:31;;;;;;;3.03;0.40;;;9.90;99.90;;;;;;5114198;28;20452;-62
2023/12/10 00:24:59;;;;;;;1.23;0.40;;;9.80;99.90;;;;;;5112855;28;20424;-63
2023/12/10 00:27:26;;;;;;;2.25;0.30;;;9.90;99.90;;;;;;5115379;28;20427;-63
2023/12/10 00:29:53;;;;;;;3.35;0.50;;;9.90;99.90;;;;;;5116154;28;20412;-63
2023/12/10 00:32:21;;;;;;;2.22;0.30;;;9.90;99.90;;;;;;5114975;28;20428;-64
2023/12/10 00:34:48;;;;;;;3.83;0.40;;;10.10;99.90;;;;;;5115149;28;20420;-64
2023/12/10 00:37:15;;;;;;;3.63;0.30;;;9.90;91.20;;;;;;5115461;28;20823;-63
2023/12/10 00:39:43;;;;;;;2.50;0.50;;;9.90;88.20;;;;;;5115714;28;20827;-63
2023/12/10 00:42:10;;;;;;;1.87;0.43;;;9.80;79.40;;;;;;5115171;28;20469;-64
2023/12/10 00:44:37;;;;;;;3.20;0.50;;;9.80;80.40;;;;;;5115479;28;20843;-63
2023/12/10 00:47:05;;;;;;;1.70;0.40;;;9.70;92.10;;;;;;5113160;28;20855;-63
2023/12/10 00:49:32;;;;;;;3.33;0.40;;;9.80;99.90;;;;;;5114632;28;20424;-63
2023/12/10 00:51:59;;;;;;;2.70;0.50;;;9.90;96.40;;;;;;5114756;28;20451;-63
2023/12/10 00:54:26;;;;;;;3.22;0.43;;;9.90;97.10;;;;;;5113049;28;20431;-63
2023/12/10 00:56:55;;;;;;;3.50;0.50;;;9.90;70.30;;;;;;5113453;28;20423;-63
2023/12/10 00:59:22;;;;;;;2.15;0.40;;;9.90;91.30;;;;;;5114478;28;20447;-61
2023/12/10 01:01:49;;;;;;;3.53;0.50;;;9.90;73.40;;;;;;5115197;28;20422;-63
2023/12/10 01:04:16;;;;;;;4.80;0.50;;;9.90;84.70;;;;;;5115710;28;20835;-63
2023/12/10 01:06:43;;;;;;;3.10;0.60;;;10.00;68.10;;;;;;5109707;28;20422;-62
2023/12/10 01:09:10;;;;;;;2.55;0.50;;;10.00;48.40;;;;;;5094465;28;20418;-63
2023/12/10 01:11:37;;;;;;;3.17;0.50;;;9.90;47.80;;;;;;5093363;28;20687;-62
2023/12/10 01:14:06;;;;;;;3.25;0.60;;;9.90;57.90;;;;;;5102528;28;20425;-63
2023/12/10 01:16:33;;;;;;;3.70;0.60;;;9.90;64.10;;;;;;5100229;28;20439;-63
2023/12/10 01:19:00;;;;;;;3.70;0.60;;;9.80;52.20;;;;;;5105913;28;20432;-63
2023/12/10 01:21:27;;;;;;;4.15;0.60;;;9.90;69.90;;;;;;5110919;28;20477;-64
2023/12/10 01:23:55;;;;;;;3.47;0.50;;;9.80;56.40;;;;;;5103663;28;20433;-63
2023/12/10 01:26:23;;;;;;;4.20;0.50;;;9.90;61.10;;;;;;5094686;28;20425;-63
2023/12/10 01:28:51;;;;;;;3.72;0.60;;;9.90;55.20;;;;;;5093338;28;20425;-63
2023/12/10 01:31:20;;;;;;;5.22;0.60;;;9.80;62.50;;;;;;5093644;28;20455;-62
2023/12/10 01:33:47;;;;;;;2.45;0.40;;;9.90;44.60;;;;;;5093369;28;20796;-62
2023/12/10 01:36:24;;;;;;;3.67;0.50;;;9.90;57.90;;;;;;5094492;28;20820;-61
2023/12/10 01:38:51;;;;;;;1.88;0.50;;;9.90;56.40;;;;;;5093946;28;20438;-61
2023/12/10 01:41:19;;;;;;;4.50;0.60;;;10.00;42.00;;;;;;5093462;28;20453;-61
2023/12/10 01:43:46;;;;;;;2.80;0.40;;;10.00;27.40;;;;;;5094478;28;20422;-61
2023/12/10 01:46:14;;;;;;;4.40;0.50;;;10.00;47.10;;;;;;5095618;28;20788;-60
2023/12/10 01:48:44;;;;;;;3.00;0.60;;;9.90;43.10;;;;;;5094498;28;20442;-61
2023/12/10 01:51:11;;;;;;;2.30;0.60;;;9.80;45.80;;;;;;5094227;28;20867;-60
2023/12/10 01:53:39;;;;;;;5.00;0.50;;;9.80;47.10;;;;;;5094728;28;20868;-62
2023/12/10 01:56:07;;;;;;;4.05;0.63;;;9.70;59.60;;;;;;5096692;28;20425;-61
2023/12/10 01:58:35;;;;;;;6.50;0.60;;;9.70;66.60;;;;;;5114853;28;21161;-61
2023/12/10 02:01:04;;;;;;;3.50;0.60;;;9.70;57.70;;;;;;5114357;28;20485;-61
2023/12/10 02:03:33;;;;;;;3.33;0.50;;;9.70;33.60;;;;;;5114488;28;20423;-61
2023/12/10 02:06:02;;;;;;;5.03;0.60;;;9.80;29.40;;;;;;5114593;28;20427;-61
2023/12/10 02:08:29;;;;;;;2.90;0.50;;;9.80;42.60;;;;;;5074075;28;20455;-61
2023/12/10 02:10:56;;;;;;;2.80;0.40;;;9.90;28.60;;;;;;5092084;28;20433;-61
2023/12/10 02:13:24;;;;;;;2.40;0.40;;;10.00;15.50;;;;;;5094450;28;20425;-61
2023/12/10 02:15:51;;;;;;;5.40;0.50;;;10.20;1.00;;;;;;5095883;28;20448;-61
2023/12/10 02:18:20;;;;;;;3.35;0.52;;;10.10;1.00;;;;;;5092413;28;20487;-62
2023/12/10 02:20:47;;;;;;;4.30;0.60;;;10.10;1.00;;;;;;5103922;28;20519;-61
2023/12/10 02:23:26;;;;;;;5.40;0.60;;;10.00;1.00;;;;;;5113226;28;20424;-61
2023/12/10 02:25:55;;;;;;;2.90;0.50;;;9.90;1.00;;;;;;5113656;28;20454;-61
2023/12/10 02:28:22;;;;;;;6.28;0.50;;;9.70;1.00;;;;;;5112456;28;20463;-62
2023/12/10 02:30:49;;;;;;;6.00;0.60;;;9.60;1.00;;;;;;5101506;28;20426;-61
2023/12/10 02:33:16;;;;;;;3.05;0.55;;;9.50;1.00;;;;;;5094878;28;20833;-61
2023/12/10 02:35:43;;;;;;;2.45;0.50;;;9.60;1.00;;;;;;5093182;28;20725;-61
2023/12/10 02:38:11;;;;;;;4.00;0.50;;;9.60;1.00;;;;;;5093438;28;20734;-60
2023/12/10 02:40:38;;;;;;;3.90;0.70;;;9.50;1.00;;;;;;5093711;28;20452;-59
2023/12/10 02:43:06;;;;;;;1.75;0.30;;;9.60;1.00;;;;;;5093013;28;20429;-60
2023/12/10 02:45:33;;;;;;;2.47;0.40;;;9.60;1.00;;;;;;5093606;28;20714;-59
2023/12/10 02:48:00;;;;;;;2.40;0.30;;;9.60;1.00;;;;;;5096486;28;20864;-59
2023/12/10 02:50:27;;;;;;;5.00;0.50;;;9.50;1.00;;;;;;5097856;28;20825;-59
2023/12/10 02:52:54;;;;;;;1.02;0.35;;;9.50;1.00;;;;;;5114358;28;20964;-58
2023/12/10 02:55:21;;;;;;;1.37;0.30;;;9.30;1.00;;;;;;5118056;28;20711;-59
2023/12/10 02:57:49;;;;;;;2.97;0.40;;;9.10;30.70;;;;;;5117989;28;20416;-59
2023/12/10 03:00:18;;;;;;;2.65;0.40;;;8.80;91.50;;;;;;5117802;28;20485;-61
2023/12/10 03:02:45;;;;;;;2.20;0.60;;;8.70;99.90;;;;;;5117573;28;20428;-61
2023/12/10 03:05:12;;;;;;;3.88;0.40;;;8.70;99.90;;;;;;5116457;28;20427;-61
2023/12/10 03:07:39;;;;;;;0.70;0.30;;;8.80;99.90;;;;;;5117040;28;20842;-62
2023/12/10 03:10:07;;;;;;;2.90;0.50;;;8.80;99.90;;;;;;5117635;28;20420;-60
2023/12/10 03:12:34;;;;;;;1.60;0.30;;;8.80;99.90;;;;;;5117330;28;20416;-62
2023/12/10 03:15:01;;;;;;;0.95;0.30;;;8.70;99.90;;;;;;5117220;28;20436;-61
2023/12/10 03:17:30;;;;;;;3.00;0.30;;;8.80;83.50;;;;;;5117635;28;20485;-60
2023/12/10 03:19:57;;;;;;;0.90;0.30;;;8.70;70.90;;;;;;5117697;28;20432;-61
2023/12/10 03:22:24;;;;;;;0.88;0.30;;;8.60;64.30;;;;;;5117714;28;20741;-61
2023/12/10 03:24:51;;;;;;;1.50;0.30;;;8.60;42.40;;;;;;5116529;28;20421;-60
2023/12/10 03:27:18;;;;;;;1.70;0.30;;;8.70;60.50;;;;;;5117377;28;20420;-60
2023/12/10 03:29:45;;;;;;;3.70;0.40;;;8.70;33.90;;;;;;5117180;28;20740;-61
2023/12/10 03:32:12;;;;;;;3.30;0.30;;;8.70;46.70;;;;;;5117400;28;20424;-62
2023/12/10 03:34:41;;;;;;;2.95;0.30;;;8.80;42.60;;;;;;5116338;28;20437;-61
2023/12/10 03:37:09;;;;;;;3.97;0.30;;;9.00;9.90;;;;;;5116809;28;20416;-60
2023/12/10 03:39:36;;;;;;;2.35;0.30;;;8.80;12.10;;;;;;5116306;28;20445;-61
2023/12/10 03:42:03;;;;;;;2.80;0.40;;;8.80;20.70;;;;;;5115391;28;20438;-61
2023/12/10 03:44:31;;;;;;;1.75;0.25;;;8.80;2.30;;;;;;5116551;28;20417;-61
2023/12/10 03:47:01;;;;;;;1.23;0.30;;;8.80;17.00;;;;;;5115772;28;20530;-62
2023/12/10 03:49:28;;;;;;;4.20;0.40;;;8.90;1.70;;;;;;5115653;28;20434;-61
2023/12/10 03:51:57;;;;;;;2.55;0.40;;;9.00;1.00;;;;;;5115551;28;20959;-62
2023/12/10 03:54:25;;;;;;;3.30;0.40;;;9.00;1.00;;;;;;5115883;28;20420;-62
2023/12/10 03:56:52;;;;;;;1.98;0.32;;;9.00;1.00;;;;;;5116800;28;20416;-62
2023/12/10 03:59:19;;;;;;;1.10;0.30;;;8.70;1.00;;;;;;5115636;28;20877;-61
2023/12/10 04:01:46;;;;;;;1.08;0.30;;;8.80;4.50;;;;;;5117173;28;20429;-61
2023/12/10 04:04:13;;;;;;;1.40;0.30;;;8.80;1.00;;;;;;5116278;28;20420;-61
2023/12/10 04:06:40;;;;;;;3.70;0.50;;;8.80;1.00;;;;;;5116464;28;20427;-62
2023/12/10 04:09:09;;;;;;;2.17;0.40;;;8.90;1.00;;;;;;5116806;28;20847;-62
2023/12/10 04:11:37;;;;;;;3.22;0.40;;;8.80;1.00;;;;;;5116529;28;20420;-62
2023/12/10 04:14:04;;;;;;;3.50;0.40;;;8.80;1.00;;;;;;5116817;28;20420;-63
2023/12/10 04:16:31;;;;;;;5.15;0.40;;;8.80;1.00;;;;;;5116004;28;20424;-62
2023/12/10 04:18:58;;;;;;;1.95;0.40;;;8.70;1.00;;;;;;5115389;28;20428;-62
2023/12/10 04:21:26;;;;;;;1.90;0.37;;;8.60;1.00;;;;;;5116348;28;20431;-63
2023/12/10 04:23:53;;;;;;;3.20;0.40;;;8.60;1.00;;;;;;5115640;28;20746;-62
2023/12/10 04:26:21;;;;;;;1.80;0.40;;;8.60;1.00;;;;;;5115534;28;20446;-62
2023/12/10 04:28:49;;;;;;;2.97;0.40;;;8.50;1.00;;;;;;5115079;28;20416;-62
2023/12/10 04:31:16;;;;;;;3.35;0.40;;;8.50;1.00;;;;;;5114660;28;20424;-62
2023/12/10 04:33:45;;;;;;;2.70;0.40;;;8.50;1.00;;;;;;5114825;28;20727;-62
2023/12/10 04:36:12;;;;;;;3.03;0.40;;;8.40;1.00;;;;;;5114641;28;20456;-61
2023/12/10 04:38:40;;;;;;;2.47;0.30;;;8.40;1.00;;;;;;5115081;28;20935;-60
2023/12/10 04:41:07;;;;;;;0.82;0.30;;;8.30;1.00;;;;;;5113664;28;21196;-60
2023/12/10 04:43:36;;;;;;;3.72;0.40;;;8.30;1.00;;;;;;5114593;28;20515;-61
2023/12/10 04:46:03;;;;;;;2.78;0.40;;;8.30;1.00;;;;;;5115085;28;20416;-61
2023/12/10 04:48:30;;;;;;;6.28;0.40;;;8.30;1.00;;;;;;5115190;28;20827;-60
2023/12/10 04:50:57;;;;;;;0.95;0.30;;;8.40;1.00;;;;;;5115249;28;20758;-61
2023/12/10 04:53:24;;;;;;;2.13;0.40;;;8.30;1.00;;;;;;5114869;28;20499;-61
2023/12/10 04:55:51;;;;;;;3.80;0.40;;;8.30;1.00;;;;;;5094157;28;20440;-61
2023/12/10 04:58:19;;;;;;;3.50;0.40;;;8.40;1.00;;;;;;5099418;28;20420;-61
2023/12/10 05:00:48;;;;;;;1.70;0.30;;;8.50;1.00;;;;;;5120059;27;20501;-61
2023/12/10 05:03:15;;;;;;;2.40;0.40;;;8.50;1.00;;;;;;5135844;27;20838;-61
2023/12/10 05:05:42;;;;;;;2.30;0.40;;;8.50;1.00;;;;;;5125236;27;20438;-61
2023/12/10 05:08:09;;;;;;;2.63;0.30;;;8.50;1.00;;;;;;5114975;28;20731;-61
2023/12/10 05:10:36;;;;;;;3.38;0.40;;;8.50;1.00;;;;;;5115617;28;20836;-61
2023/12/10 05:13:03;;;;;;;3.50;0.40;;;8.70;1.00;;;;;;5115699;28;20412;-61
2023/12/10 05:15:30;;;;;;;1.63;0.40;;;8.70;1.00;;;;;;5114575;28;20466;-61
2023/12/10 05:18:01;;;;;;;2.92;0.30;;;8.70;1.00;;;;;;5114905;28;20438;-61
2023/12/10 05:20:30;;;;;;;1.40;0.30;;;8.60;1.00;;;;;;5115032;28;20439;-62
2023/12/10 05:22:57;;;;;;;1.75;0.30;;;8.60;1.00;;;;;;5114932;28;20993;-61
2023/12/10 05:25:27;;;;;;;2.90;0.30;;;8.80;99.90;;;;;;5114838;28;20420;-61
2023/12/10 05:27:54;;;;;;;1.50;0.40;;;8.80;1.00;;;;;;5114667;28;20764;-62
2023/12/10 05:30:21;;;;;;;3.30;0.50;;;8.60;1.00;;;;;;5114992;28;20824;-61
2023/12/10 05:32:48;;;;;;;2.20;0.40;;;8.60;1.00;;;;;;5115606;28;20420;-61
2023/12/10 05:35:17;;;;;;;2.90;0.40;;;8.70;1.00;;;;;;5115453;28;20424;-61
2023/12/10 05:37:44;;;;;;;2.70;0.30;;;8.60;1.00;;;;;;5115059;28;20416;-61
2023/12/10 05:40:12;;;;;;;2.58;0.38;;;8.60;99.90;;;;;;5114351;28;20436;-61
2023/12/10 05:42:39;;;;;;;2.55;0.50;;;8.60;99.90;;;;;;5113378;28;20411;-61
2023/12/10 05:45:07;;;;;;;2.65;0.30;;;8.60;1.00;;;;;;5113313;28;20829;-61
2023/12/10 05:47:34;;;;;;;2.53;0.30;;;8.50;99.90;;;;;;5113219;28;20416;-61
2023/12/10 05:50:01;;;;;;;3.00;0.40;;;8.50;99.90;;;;;;5114446;28;20420;-62
2023/12/10 05:52:30;;;;;;;3.75;0.40;;;8.40;1.00;;;;;;5113751;28;20435;-61
2023/12/10 05:54:57;;;;;;;4.18;0.40;;;8.50;99.90;;;;;;5114439;28;20408;-61
2023/12/10 05:57:24;;;;;;;3.63;0.40;;;8.40;1.00;;;;;;5115216;28;20427;-61
2023/12/10 05:59:51;;;;;;;2.35;0.30;;;8.40;1.00;;;;;;5114686;28;20439;-61
2023/12/10 06:02:18;;;;;;;2.60;0.40;;;8.40;1.00;;;;;;5114656;28;20416;-61
2023/12/10 06:04:45;;;;;;;2.28;0.40;;;8.50;1.00;;;;;;5115234;28;20706;-61
2023/12/10 06:07:12;;;;;;;2.60;0.40;;;8.40;54.60;;;;;;5115097;28;20400;-61
2023/12/10 06:09:41;;;;;;;3.30;0.50;;;8.50;99.90;;;;;;5114751;28;20418;-61
2023/12/10 06:12:08;;;;;;;3.03;0.40;;;8.50;99.90;;;;;;5114931;28;20427;-61
2023/12/10 06:14:36;;;;;;;1.60;0.40;;;8.50;99.90;;;;;;5114617;28;20500;-60
2023/12/10 06:17:03;;;;;;;2.42;0.40;;;8.50;99.80;;;;;;5114383;28;20431;-61
2023/12/10 06:19:30;;;;;;;3.22;0.32;;;8.80;99.90;;;;;;5113217;28;20436;-61
2023/12/10 06:21:57;;;;;;;1.40;0.30;;;8.90;1.00;;;;;;5114439;28;20408;-61
2023/12/10 06:24:24;;;;;;;1.70;0.30;;;9.00;99.90;;;;;;5117734;28;20415;-61
2023/12/10 06:26:52;;;;;;;2.53;0.38;;;8.90;6.60;;;;;;5117360;28;20416;-62
2023/12/10 06:29:20;;;;;;;3.90;0.40;;;8.80;79.10;;;;;;5118174;28;20420;-61
2023/12/10 06:31:47;;;;;;;2.00;0.40;;;8.80;99.90;;;;;;5115388;28;20450;-61
2023/12/10 06:34:14;;;;;;;3.30;0.40;;;8.60;99.90;;;;;;5115242;28;20507;-63
2023/12/10 06:36:45;;;;;;;3.80;0.30;;;8.60;1.00;;;;;;5111381;28;20444;-61
2023/12/10 06:39:12;;;;;;;3.30;0.30;;;8.50;99.90;;;;;;5114843;28;20477;-61
2023/12/10 06:41:39;;;;;;;2.60;0.40;;;8.50;99.90;;;;;;5117030;28;20420;-61
2023/12/10 06:44:09;;;;;;;3.17;0.40;;;8.70;99.90;;;;;;5116079;28;20506;-61
2023/12/10 06:46:37;;;;;;;0.60;0.30;;;8.70;1.00;;;;;;5111238;28;20443;-61
2023/12/10 06:49:04;;;;;;;1.60;0.40;;;8.60;1.00;;;;;;5116845;28;20796;-61
2023/12/10 06:51:32;;;;;;;3.90;0.40;;;8.60;1.00;;;;;;5116669;28;20424;-62
2023/12/10 06:53:59;;;;;;;2.05;0.30;;;8.80;99.90;;;;;;5115990;28;20882;-61
2023/12/10 06:56:26;;;;;;;1.60;0.40;;;8.90;1.00;;;;;;5115646;28;20416;-61
2023/12/10 06:58:53;;;;;;;1.90;0.30;;;8.90;99.90;;;;;;5115879;28;20932;-61
2023/12/10 07:01:24;;;;;;;3.20;0.40;;;8.80;99.90;;;;;;5115444;28;20428;-61
2023/12/10 07:03:51;;;;;;;2.10;0.30;;;8.90;1.00;;;;;;5116101;28;21073;-61
2023/12/10 07:06:18;;;;;;;1.63;0.27;;;8.80;99.90;;;;;;5115722;27;20434;-60
2023/12/10 07:08:46;;;;;;;1.90;0.30;;;8.80;1.00;;;;;;5115667;28;20497;-61
2023/12/10 07:11:13;;;;;;;1.45;0.40;;;8.80;1.00;;;;;;5116898;28;20801;-60
2023/12/10 07:13:40;;;;;;;2.90;0.30;;;8.90;99.90;;;;;;5116924;28;20424;-62
2023/12/10 07:16:08;;;;;;;2.90;0.40;;;9.00;1.00;;;;;;5116784;28;20412;-62
2023/12/10 07:18:36;;;;;;;1.50;0.30;;;9.00;1.00;;;;;;5116021;28;20465;-62
2023/12/10 07:21:04;;;;;;;2.17;0.30;;;9.00;1.00;;;;;;5115514;28;20459;-62
2023/12/10 07:23:31;;;;;;;2.83;0.35;;;9.00;99.90;;;;;;5116834;28;20436;-62
2023/12/10 07:25:58;;;;;;;1.20;0.30;;;9.00;99.90;;;;;;5116610;28;20711;-62
2023/12/10 07:28:25;;;;;;;3.00;0.30;;;9.00;1.00;;;;;;5116258;28;20432;-61
2023/12/10 07:30:52;;;;;;;3.55;0.43;;;9.10;99.90;;;;;;5113773;28;20416;-60
2023/12/10 07:33:19;;;;;;;1.10;0.30;;;9.00;1.00;;;;;;5114738;28;20742;-60
2023/12/10 07:35:48;;;;;;;0.73;0.30;;;9.00;1.00;;;;;;5115701;28;21101;-61
2023/12/10 07:38:15;;;;;;;2.13;0.40;;;8.80;1.00;;;;;;5115805;28;20427;-60
2023/12/10 07:40:42;;;;;;;1.70;0.30;;;8.60;1.00;;;;;;5115836;28;20970;-60
2023/12/10 07:43:10;;;;;;;2.10;0.40;;;8.50;1.00;;;;;;5115200;28;20420;-60
2023/12/10 07:45:37;;;;;;;1.40;0.30;;;8.40;1.00;;;;;;5116597;28;20424;-60
2023/12/10 07:48:04;;;;;;;3.17;0.40;;;8.30;1.00;;;;;;5115843;28;20420;-60
2023/12/10 07:50:31;;;;;;;1.70;0.40;;;8.30;1.00;;;;;;5096553;28;20852;-63
2023/12/10 07:53:00;;;;;;;2.47;0.32;;;8.30;1.00;;;;;;5113923;28;20427;-60
2023/12/10 07:55:27;;;;;;;1.58;0.30;;;8.20;1.00;;;;;;5116831;28;20858;-60
2023/12/10 07:57:54;;;;;;;2.63;0.40;;;8.20;1.00;;;;;;5116845;28;20811;-61
2023/12/10 08:00:22;;;;;;;3.00;0.40;;;8.20;1.00;;;;;;5116425;28;20432;-61
2023/12/10 08:02:49;;;;;;;3.00;0.40;;;8.20;1.00;;;;;;5116932;28;20514;-61
2023/12/10 08:05:16;;;;;;;4.57;0.60;;;8.20;1.00;;;;;;5117154;28;20807;-61
2023/12/10 08:07:43;;;;;;;0.80;0.30;;;8.20;1.00;;;;;;5116906;28;20420;-61
2023/12/10 08:10:11;;;;;;;4.47;0.40;;;8.30;1.00;;;;;;5115900;28;20412;-62
2023/12/10 08:12:38;;;;;;;2.28;0.40;;;8.30;1.00;;;;;;5116361;28;20807;-61
2023/12/10 08:15:07;;;;;;;1.02;0.40;;;8.30;1.00;;;;;;5116424;28;20927;-61
2023/12/10 08:17:34;;;;;;;1.63;0.30;;;8.30;1.00;;;;;;5114690;28;20440;-61
2023/12/10 08:20:01;;;;;;;2.25;0.50;;;8.30;1.00;;;;;;5114961;28;20432;-61
2023/12/10 08:22:29;;;;;;;1.80;0.38;;;8.30;1.00;;;;;;5116163;28;20426;-61
2023/12/10 08:24:56;;;;;;;1.90;0.40;;;8.30;1.00;;;;;;5116009;28;20423;-62
2023/12/10 08:27:25;;;;;;;2.90;0.40;;;8.30;1.00;;;;;;5115396;28;20432;-62
2023/12/10 08:29:52;;;;;;;2.60;0.40;;;8.40;1.00;;;;;;5115908;28;20850;-61
2023/12/10 08:32:19;;;;;;;1.40;0.30;;;8.40;1.00;;;;;;5115456;28;20432;-61
2023/12/10 08:34:46;;;;;;;3.58;0.50;;;8.40;1.00;;;;;;5115919;28;20420;-61
2023/12/10 08:37:14;;;;;;;0.80;0.35;;;8.50;1.00;;;;;;5114486;28;20537;-62
2023/12/10 08:39:43;;;;;;;1.60;0.40;;;8.50;1.00;;;;;;5115878;28;20412;-62
2023/12/10 08:42:10;;;;;;;1.70;0.50;;;8.70;1.00;;;;;;5114991;28;20542;-61
2023/12/10 08:44:38;;;;;;;4.10;0.40;;;8.70;1.00;;;;;;5114849;28;20427;-61
2023/12/10 08:47:05;;;;;;;2.10;0.40;;;8.80;1.00;;;;;;5114139;28;20427;-61
2023/12/10 08:49:32;;;;;;;1.57;0.40;;;8.90;1.00;;;;;;5113693;28;20458;-61
2023/12/10 08:52:00;;;;;;;1.73;0.40;;;8.90;1.00;;;;;;5104257;28;20440;-61
2023/12/10 08:54:27;;;;;;;2.83;0.40;;;8.90;99.90;;;;;;5104430;28;20413;-61
2023/12/10 08:56:54;;;;;;;1.33;0.40;;;8.80;1.00;;;;;;5097187;28;20713;-61
2023/12/10 08:59:21;;;;;;;2.50;0.30;;;8.80;1.00;;;;;;5113607;28;20427;-61
2023/12/10 09:01:49;;;;;;;2.03;0.47;;;8.70;1.00;;;;;;5114051;28;20432;-61
2023/12/10 09:04:16;;;;;;;2.58;0.40;;;8.80;1.00;;;;;;5113375;28;20443;-61
2023/12/10 09:06:44;;;;;;;3.00;0.50;;;8.80;99.90;;;;;;5114653;28;20412;-61
2023/12/10 09:09:11;;;;;;;2.43;0.30;;;8.80;1.00;;;;;;5113304;28;20755;-62
2023/12/10 09:11:38;;;;;;;1.42;0.30;;;8.90;29.80;;;;;;5113298;28;20435;-62
2023/12/10 09:14:07;;;;;;;2.35;0.30;;;9.20;99.90;;;;;;5110819;28;20938;-61
2023/12/10 09:16:34;;;;;;;1.58;0.30;;;9.30;99.90;;;;;;5113431;28;20527;-63
2023/12/10 09:19:03;;;;;;;1.80;0.30;;;9.60;1.00;;;;;;5112632;28;20420;-61
2023/12/10 09:21:30;;;;;;;0.90;0.30;;;9.80;1.00;;;;;;5114423;28;20601;-61
2023/12/10 09:23:57;;;;;;;2.00;0.40;;;9.80;1.00;;;;;;5114293;28;20420;-61
2023/12/10 09:26:25;;;;;;;2.30;0.40;;;9.80;1.00;;;;;;5114283;28;21115;-62
2023/12/10 09:28:52;;;;;;;2.88;0.40;;;9.90;99.90;;;;;;5114420;28;20424;-61
2023/12/10 09:31:19;;;;;;;1.90;0.30;;;10.10;99.90;;;;;;5115122;28;20900;-62
2023/12/10 09:33:47;;;;;;;2.78;0.40;;;10.10;1.00;;;;;;5113020;28;20419;-62
2023/12/10 09:36:17;;;;;;;5.57;0.40;;;10.10;99.90;;;;;;5114781;28;20412;-61
2023/12/10 09:38:44;;;;;;;3.17;0.30;;;10.00;99.90;;;;;;5114590;28;20420;-61
2023/12/10 09:41:12;;;;;;;1.35;0.30;;;9.90;1.00;;;;;;5117382;28;20533;-62
2023/12/10 09:43:39;;;;;;;1.50;0.30;;;9.90;1.00;;;;;;5113837;28;20416;-61
2023/12/10 09:46:07;;;;;;;1.30;0.30;;;9.90;1.00;;;;;;5113673;28;20412;-61
2023/12/10 09:48:35;;;;;;;1.30;0.30;;;9.90;99.90;;;;;;5114490;28;20473;-61
2023/12/10 09:51:02;;;;;;;2.70;0.40;;;10.00;99.90;;;;;;5115466;28;20427;-62
2023/12/10 09:53:31;;;;;;;1.50;0.30;;;10.20;99.90;;;;;;5109239;28;20879;-62
2023/12/10 09:55:58;;;;;;;1.52;0.30;;;10.20;99.90;;;;;;5096424;28;20428;-61
2023/12/10 09:58:25;;;;;;;2.50;0.30;;;10.20;1.00;;;;;;5110446;28;20432;-61
2023/12/10 10:00:53;;;;;;;1.60;0.30;;;10.30;1.00;;;;;;5118032;28;20428;-61
2023/12/10 10:03:21;;;;;;;1.30;0.30;;;10.50;99.90;;;;;;5119352;28;20420;-62
2023/12/10 10:05:48;;;;;;;1.75;0.20;;;10.90;99.90;;;;;;5118248;28;20712;-62
2023/12/10 10:08:16;;;;;;;0.90;0.25;;;10.60;1.00;;;;;;5115965;28;20454;-61
2023/12/10 10:10:44;;;;;;;1.50;0.20;;;10.40;99.90;;;;;;5118088;28;20416;-61
2023/12/10 10:13:11;;;;;;;1.30;0.20;;;10.30;1.00;;;;;;5117189;28;20416;-62
2023/12/10 10:15:38;;;;;;;0.90;0.20;;;10.30;99.90;;;;;;5116705;28;20816;-61
2023/12/10 10:18:07;;;;;;;1.40;0.20;;;10.30;1.00;;;;;;5117346;28;20424;-62
2023/12/10 10:20:34;;;;;;;0.60;0.20;;;10.20;99.90;;;;;;5113406;28;20427;-62
2023/12/10 10:23:02;;;;;;;1.20;0.40;;;10.20;99.90;;;;;;5115277;27;20435;-61
2023/12/10 10:25:29;;;;;;;1.17;0.30;;;9.90;99.90;;;;;;5115302;28;20873;-61
2023/12/10 10:27:57;;;;;;;1.63;0.30;;;9.90;1.00;;;;;;5116520;28;20493;-61
2023/12/10 10:30:24;;;;;;;1.75;0.30;;;9.90;99.90;;;;;;5115907;27;20432;-61
2023/12/10 10:32:55;;;;;;;1.20;0.30;;;9.80;1.00;;;;;;5112905;28;20431;-61
2023/12/10 10:35:22;;;;;;;1.60;0.40;;;9.70;1.00;;;;;;5116662;28;21105;-62
2023/12/10 10:37:50;;;;;;;1.98;0.30;;;9.80;99.90;;;;;;5117254;28;20416;-61
2023/12/10 10:40:17;;;;;;;1.40;0.30;;;9.80;1.00;;;;;;5106464;28;20429;-61
2023/12/10 10:42:46;;;;;;;2.58;0.30;;;9.80;99.90;;;;;;5107968;28;20424;-61
2023/12/10 10:45:14;;;;;;;2.40;0.30;;;9.80;99.90;;;;;;5113593;27;20485;-61
2023/12/10 10:47:41;;;;;;;2.53;0.50;;;10.10;99.90;;;;;;5110740;28;20443;-62
2023/12/10 10:50:11;;;;;;;1.40;0.30;;;10.10;1.00;;;;;;5114536;28;20436;-62
2023/12/10 10:52:38;;;;;;;3.50;0.40;;;10.10;99.90;;;;;;5111376;28;20428;-61
2023/12/10 10:55:07;;;;;;;2.30;0.30;;;10.00;99.90;;;;;;5093342;28;20410;-62
2023/12/10 10:57:35;;;;;;;0.80;0.32;;;10.00;99.90;;;;;;5095829;28;20413;-61
2023/12/10 11:00:36;;;;;;;1.88;0.47;;;10.20;99.90;;;;;;5095953;28;20849;-62
2023/12/10 11:03:04;;;;;;;2.90;0.40;;;10.30;1.00;;;;;;5094794;28;20816;-62
2023/12/10 11:05:33;;;;;;;1.52;0.30;;;10.30;99.90;;;;;;5094338;28;20444;-61
2023/12/10 11:08:00;;;;;;;1.30;0.30;;;10.20;1.00;;;;;;5095524;28;20422;-62
2023/12/10 11:10:27;;;;;;;1.20;0.40;;;10.20;79.60;;;;;;5098322;28;20425;-62
2023/12/10 11:12:56;;;;;;;2.10;0.30;;;10.00;1.00;;;;;;5116979;28;20435;-62
2023/12/10 11:15:24;;;;;;;1.35;0.30;;;10.20;1.00;;;;;;5110580;28;20520;-61
2023/12/10 11:17:54;;;;;;;0.80;0.20;;;10.30;1.00;;;;;;5096325;28;20486;-61
2023/12/10 11:20:31;;;;;;;2.33;0.30;;;10.20;1.00;;;;;;5096234;28;20434;-61
2023/12/10 11:22:58;;;;;;;4.00;0.30;;;10.10;1.00;;;;;;5095642;28;20426;-61
2023/12/10 11:25:28;;;;;;;1.35;0.30;;;10.30;52.90;;;;;;5095473;28;20429;-61
2023/12/10 11:27:55;;;;;;;2.10;0.30;;;10.20;1.00;;;;;;5095844;28;20712;-61
2023/12/10 11:30:22;;;;;;;3.05;0.30;;;10.20;1.00;;;;;;5095484;28;20428;-61
2023/12/10 11:32:50;;;;;;;1.10;0.30;;;10.00;99.90;;;;;;5095643;28;20812;-61
2023/12/10 11:35:18;;;;;;;2.00;0.30;;;10.30;99.90;;;;;;5095463;28;20773;-61
2023/12/10 11:37:46;;;;;;;2.53;0.30;;;10.20;1.00;;;;;;5100336;28;20429;-61
2023/12/10 11:40:13;;;;;;;4.22;0.40;;;10.10;1.00;;;;;;5101369;28;20425;-61
2023/12/10 11:42:41;;;;;;;1.40;0.40;;;9.90;99.90;;;;;;5095449;28;20430;-61
2023/12/10 11:45:09;;;;;;;3.30;0.40;;;9.80;99.90;;;;;;5093552;28;20422;-62
2023/12/10 11:47:36;;;;;;;2.35;0.50;;;9.80;1.00;;;;;;5094527;28;20426;-62
2023/12/10 11:50:05;;;;;;;3.27;0.40;;;9.70;99.90;;;;;;5094743;28;20421;-62
2023/12/10 11:52:34;;;;;;;2.30;0.40;;;9.70;99.90;;;;;;5109358;28;20521;-61
2023/12/10 11:55:02;;;;;;;2.50;0.50;;;9.90;99.90;;;;;;5115039;28;20431;-59
2023/12/10 11:57:29;;;;;;;1.40;0.30;;;10.00;1.00;;;;;;5117815;27;20698;-61
2023/12/10 11:59:58;;;;;;;2.08;0.40;;;9.90;99.90;;;;;;5114855;28;20424;-61
2023/12/10 12:02:26;;;;;;;1.35;0.50;;;10.00;99.90;;;;;;5111550;28;20436;-61
2023/12/10 12:04:53;;;;;;;1.80;0.40;;;9.90;53.70;;;;;;5112561;28;20535;-62
2023/12/10 12:07:24;;;;;;;1.98;0.40;;;9.80;99.90;;;;;;5113306;28;20869;-62
2023/12/10 12:09:53;;;;;;;1.98;0.40;;;9.90;99.90;;;;;;5111522;28;20424;-61
2023/12/10 12:12:21;;;;;;;2.15;0.40;;;9.90;99.90;;;;;;5110142;28;20433;-61
2023/12/10 12:14:49;;;;;;;2.00;0.40;;;9.90;99.90;;;;;;5096603;28;20890;-61
2023/12/10 12:17:16;;;;;;;0.90;0.35;;;9.90;1.00;;;;;;5114325;28;20426;-61
2023/12/10 12:19:44;;;;;;;1.30;0.40;;;10.10;99.90;;;;;;5114461;28;20416;-61
2023/12/10 12:22:11;;;;;;;2.80;0.40;;;10.10;99.90;;;;;;5112623;28;20431;-62
2023/12/10 12:24:39;;;;;;;3.13;0.40;;;10.20;1.00;;;;;;5108751;28;20433;-61
2023/12/10 12:27:08;;;;;;;1.90;0.40;;;10.20;99.90;;;;;;5095603;28;20790;-62
2023/12/10 12:29:36;;;;;;;1.33;0.40;;;10.40;1.00;;;;;;5095145;28;20926;-62
2023/12/10 12:32:04;;;;;;;2.75;0.40;;;10.40;1.00;;;;;;5101424;28;20842;-61
2023/12/10 12:34:31;;;;;;;2.97;0.40;;;10.50;99.90;;;;;;5113150;28;20731;-61
2023/12/10 12:36:59;;;;;;;3.08;0.50;;;10.40;99.90;;;;;;5109443;28;20431;-62
2023/12/10 12:39:26;;;;;;;1.70;0.40;;;10.30;1.00;;;;;;5109162;28;20416;-61
2023/12/10 12:42:01;;;;;;;2.00;0.30;;;10.40;99.90;;;;;;5151982;27;20347;-61
2023/12/10 12:44:28;;;;;;;1.50;0.50;;;10.40;99.90;;;;;;5131843;28;20435;-61
2023/12/10 12:46:55;;;;;;;2.65;0.40;;;10.40;23.40;;;;;;5133100;28;20438;-61
2023/12/10 12:49:22;;;;;;;0.80;0.40;;;10.40;1.00;;;;;;5130699;28;20430;-62
2023/12/10 12:51:49;;;;;;;3.33;0.40;;;10.40;99.90;;;;;;5142752;27;20440;-62
2023/12/10 12:54:16;;;;;;;0.80;0.30;;;10.40;99.90;;;;;;5140783;27;20994;-61
2023/12/10 12:56:44;;;;;;;1.65;0.40;;;10.40;1.00;;;;;;5136883;27;20970;-62
2023/12/10 12:59:14;;;;;;;0.98;0.40;;;10.40;1.00;;;;;;5124757;27;20595;-62
2023/12/10 13:01:41;;;;;;;1.70;0.40;;;10.30;1.00;;;;;;5123587;27;20488;-62